Latest Weather Observations for Falls Creek

IDV60801

Issued at 10:33 pm EDT Tuesday 26 January 2021 (issued every 10 minutes, with the page automatically refreshed every 10 minutes)

About weather observations | Map of weather stations | Latest weather observations for VIC | Other Formats
Station Details ID: 083084 Name: FALLS CREEK Lat: -36.87 Lon: 147.28 Height: 1765.0 m
Data from the previous 72 hours. | See also: Recent months at Falls Creek
Date/Time
EDT
Temp
°C
App
Temp
°C
Dew
Point
°C
Rel
Hum
%
Delta-T
°C
Wind Press
QNH
hPa
Press
MSL
hPa
Rain since
9am
mm
Dir  Spd
km/h
Gust
km/h
Spd
kts
Gust
kts
26/10:00pm 11.0 9.6 10.8 99 0.1 ESE 9 15 5 8 1012.9 1004.1 61.8
26/09:30pm 11.1 9.7 10.9 99 0.1 SE 9 13 5 7 1012.6 1003.9 61.8
26/09:00pm 11.5 10.6 11.3 99 0.1 SSE 7 15 4 8 1012.3 1003.5 61.8
26/08:30pm 11.6 10.3 11.4 99 0.1 SE 9 17 5 9 1011.9 1003.2 61.8
26/08:00pm 11.7 10.5 11.5 99 0.1 ESE 9 17 5 9 1011.4 1002.7 61.6
26/07:30pm 12.0 10.9 11.8 99 0.1 SE 9 13 5 7 1011.0 1002.2 61.6
26/07:00pm 12.5 11.5 12.3 99 0.1 S 9 15 5 8 1010.7 1001.9 61.6
26/06:30pm 12.2 10.7 12.0 99 0.1 SE 11 15 6 8 1010.5 1001.7 61.6
26/06:00pm 12.2 11.1 12.0 99 0.1 SSE 9 15 5 8 1010.1 1001.3 61.6
26/05:30pm 12.3 10.5 12.1 99 0.1 SSE 13 17 7 9 1010.1 1001.3 61.2
26/05:00pm 13.0 12.5 12.7 98 0.2 E 7 15 4 8 1010.0 1001.2 61.0
26/04:30pm 15.2 15.5 14.9 98 0.2 WNW 7 19 4 10 1009.9 1001.1 61.0
26/04:00pm 15.9 14.9 15.7 99 0.1 NW 15 24 8 13 1009.4 1000.6 61.0
26/03:30pm 14.5 12.6 14.3 99 0.1 WNW 17 26 9 14 1009.2 1000.3 61.0
26/03:00pm 13.9 10.5 13.7 99 0.1 W 24 35 13 19 1009.2 1000.3 61.0
26/02:30pm 14.0 11.4 13.8 99 0.1 WNW 20 39 11 21 1008.9 1000.1 61.0
26/02:00pm 14.1 11.5 13.9 99 0.1 NW 20 33 11 18 1008.5 999.6 54.2
26/01:30pm 14.1 9.6 13.9 99 0.1 NNW 30 50 16 27 1008.1 999.2 51.8
26/01:00pm 14.0 8.6 13.8 99 0.1 NNW 35 57 19 31 1007.9 999.0 51.4
26/12:30pm 13.7 8.5 13.5 99 0.1 NNW 33 52 18 28 1008.0 999.1 43.4
26/12:00pm 13.5 8.5 13.3 99 0.1 NNW 32 50 17 27 1007.9 999.0 33.4
26/11:30am 13.2 8.1 13.0 99 0.1 NNW 32 43 17 23 1007.6 998.7 26.2
26/11:00am 13.1 8.3 12.9 99 0.1 NNW 30 50 16 27 1007.6 998.7 21.8
26/10:51am 12.9 8.0 12.7 99 0.1 NNW 30 50 16 27 1007.4 998.5 20.2
26/10:30am 12.8 8.7 12.6 99 0.1 NNW 26 39 14 21 1007.9 999.0 17.0
26/10:00am 12.7 6.1 12.5 99 0.1 NNW 39 61 21 33 1007.6 998.7 8.0
26/09:37am 13.1 5.8 12.9 99 0.1 NNW 43 61 23 33 1007.1 998.3 3.6
26/09:30am 13.1 5.8 12.9 99 0.1 NNW 43 57 23 31 1007.3 998.4 2.8
26/09:09am 12.8 5.8 12.6 99 0.1 NNW 41 59 22 32 1007.3 998.4 0.8
26/09:00am 12.9 6.3 12.7 99 0.1 NNW 39 56 21 30 1007.6 998.7 1.0
26/08:30am 13.1 7.0 12.9 99 0.1 NNW 37 57 20 31 1007.7 998.9 0.4
26/08:01am 13.0 7.2 12.8 99 0.1 NNW 35 57 19 31 1007.6 998.7 0.4
26/08:00am 13.0 7.2 12.8 99 0.1 NNW 35 52 19 28 1007.6 998.7 0.4
26/07:39am 13.0 6.8 12.7 98 0.2 NNW 37 57 20 31 1007.5 998.6 0.4
26/07:30am 12.7 6.3 12.1 96 0.4 NNW 37 52 20 28 1007.6 998.7 0.4
26/07:00am 12.9 6.8 10.3 84 1.5 NNW 33 43 18 23 1007.6 998.7 0.4
26/06:30am 13.5 6.7 9.4 76 2.3 NNW 35 50 19 27 1007.9 999.0 0.4
26/06:00am 14.8 6.8 7.6 62 3.9 NNW 39 61 21 33 1007.5 998.6 0.4
26/05:30am 15.1 6.5 6.7 57 4.5 NNW 41 59 22 32 1007.4 998.5 0.4
26/05:02am 15.4 6.6 5.6 52 5.2 NNW 41 59 22 32 1007.4 998.5 0.4
26/05:00am 15.5 6.4 5.7 52 5.2 NNW 43 59 23 32 1007.4 998.5 0.4
26/04:30am 16.7 7.3 4.4 44 6.4 NNW 43 72 23 39 1007.4 998.5 0.4
26/04:23am 16.8 8.1 4.2 43 6.5 NNW 39 72 21 39 1007.6 998.7 0.4
26/04:18am 16.3 8.8 4.7 46 6.0 NNW 33 54 18 29 1007.7 998.9 0.4
26/04:00am 16.5 9.2 4.5 45 6.2 NNW 32 48 17 26 1008.5 999.6 0.4
26/03:30am 17.1 9.9 5.1 45 6.3 NNW 32 46 17 25 1008.8 1000.0 0.4
26/03:00am 17.8 8.8 4.7 42 6.9 NNW 41 65 22 35 1008.6 999.7 0.4
26/02:38am 17.8 10.0 5.1 43 6.7 NNW 35 56 19 30 1008.6 999.7 0.4
26/02:30am 17.7 10.1 5.6 45 6.5 NNW 35 50 19 27 1009.0 1000.2 0.4
26/02:00am 17.7 9.1 6.6 48 6.1 NNW 41 57 22 31 1008.7 999.9 0.4
26/01:30am 17.9 9.9 7.6 51 5.7 NNW 39 54 21 29 1009.0 1000.2 0.4
26/01:00am 18.3 10.4 7.7 50 5.9 NNW 39 52 21 28 1009.4 1000.6 0.4
26/12:30am 18.7 11.7 8.4 51 5.8 NNW 35 48 19 26 1009.8 1001.0 0.4
26/12:18am 18.8 11.7 8.2 50 6.0 NNW 35 57 19 31 1009.9 1001.1 0.4
26/12:00am 19.1 11.7 8.4 50 6.1 NNW 37 52 20 28 1010.2 1001.4 0.4
 
Date/Time
EDT
Temp
°C
App
Temp
°C
Dew
Point
°C
Rel
Hum
%
Delta-T
°C
Wind Press
QNH
hPa
Press
MSL
hPa
Rain since
9am
mm
Dir  Spd
km/h
Gust
km/h
Spd
kts
Gust
kts
25/11:30pm 19.2 12.2 8.5 50 6.1 NNW 35 48 19 26 1010.6 1001.8 0.4
25/11:00pm 19.2 12.8 8.5 50 6.1 NNW 32 43 17 23 1011.0 1002.2 0.4
25/10:30pm 19.3 12.9 8.6 50 6.1 NNW 32 41 17 22 1011.3 1002.6 0.4
25/10:00pm 18.9 12.5 8.6 51 5.9 NNW 32 41 17 22 1011.5 1002.8 0.4
25/09:30pm 18.1 12.3 9.5 57 4.9 NNW 30 41 16 22 1011.4 1002.7 0.4
25/09:00pm 18.0 11.8 9.9 59 4.7 NNW 33 52 18 28 1011.8 1003.0 0.4
25/08:58pm 18.2 11.8 9.3 56 5.1 NNW 33 52 18 28 1011.5 1002.8 0.4
25/08:30pm 17.7 12.1 10.1 61 4.4 NNW 30 41 16 22 1011.3 1002.6 0.4
25/08:00pm 17.8 12.3 10.4 62 4.3 NNW 30 61 16 33 1011.9 1003.2 0.0
25/07:59pm 18.6 13.3 9.9 57 5.0 NNW 28 46 15 25 1011.9 1003.2 0.0
25/07:30pm 20.2 15.6 8.2 46 6.8 N 22 35 12 19 1011.7 1002.9 0.0
25/07:00pm 20.2 16.3 8.5 47 6.7 NNW 19 30 10 16 1011.9 1003.2 0.0
25/06:30pm 20.8 16.8 8.4 45 7.1 NNW 19 30 10 16 1012.1 1003.4 0.0
25/06:00pm 21.1 16.2 8.4 44 7.3 NNW 24 41 13 22 1012.0 1003.3 0.0
25/05:30pm 21.4 15.8 8.7 44 7.3 NNW 28 39 15 21 1012.3 1003.5 0.0
25/05:00pm 21.0 15.0 8.6 45 7.1 NNW 30 43 16 23 1012.5 1003.8 0.0
25/04:30pm 21.0 16.3 9.3 47 6.8 NNW 24 32 13 17 1013.1 1004.4 0.0
25/04:00pm 19.7 13.9 9.6 52 5.9 NNW 30 41 16 22 1013.7 1005.0 0.0
25/03:30pm 18.6 14.1 10.2 58 4.9 NNW 24 35 13 19 1013.9 1005.3 0.0
25/03:00pm 21.1 14.7 9.4 47 6.8 NNW 33 61 18 33 1014.5 1005.9 0.0
25/02:30pm 23.2 15.9 8.9 40 8.3 NNW 37 57 20 31 1014.5 1005.9 0.0
25/02:00pm 22.8 15.2 9.2 42 8.0 N 39 61 21 33 1014.9 1006.2 0.0
25/01:30pm 22.2 14.7 9.4 44 7.5 N 39 57 21 31 1015.4 1006.7 0.0
25/01:00pm 21.3 14.0 10.2 49 6.6 N 39 57 21 31 1015.8 1007.2 0.0
25/12:39pm 21.2 15.1 10.4 50 6.4 N 33 54 18 29 1016.2 1007.6 0.0
25/12:30pm 20.8 14.7 10.3 51 6.2 N 33 48 18 26 1016.3 1007.7 0.0
25/12:21pm 21.1 15.6 10.6 51 6.2 N 30 48 16 26 1016.4 1007.8 0.0
25/12:00pm 20.5 14.9 10.0 51 6.2 N 30 44 16 24 1016.7 1008.1 0.0
25/11:30am 18.7 15.0 10.0 57 5.1 N 20 32 11 17 1017.1 1008.6 0.0
25/11:00am 17.8 13.2 9.7 59 4.7 NNW 24 39 13 21 1017.5 1008.9 0.0
25/10:30am 18.9 13.3 8.6 51 5.8 NNW 28 35 15 19 1017.4 1008.8 0.0
25/10:00am 18.9 14.0 8.6 51 5.8 NNW 24 35 13 19 1017.5 1008.9 0.0
25/09:30am 19.6 15.5 8.6 49 6.3 NNW 20 33 11 18 1017.9 1009.3 0.0
25/09:00am 18.8 14.5 7.9 49 6.1 NNW 20 32 11 17 1018.1 1009.6 0.0
25/08:30am 18.3 13.8 7.1 48 6.2 NNW 20 30 11 16 1018.3 1009.8 0.0
25/08:00am 17.8 13.1 6.0 46 6.3 NNW 20 32 11 17 1018.2 1009.7 0.0
25/07:30am 17.8 12.8 4.7 42 6.9 NNW 20 28 11 15 1018.1 1009.6 0.0
25/07:00am 17.7 12.4 3.2 38 7.4 NNW 20 26 11 14 1018.0 1009.4 0.0
25/06:30am 17.6 11.9 3.1 38 7.4 NNW 22 30 12 16 1017.9 1009.3 0.0
25/06:00am 17.9 11.8 3.0 37 7.6 NNW 24 33 13 18 1017.6 1009.1 0.0
25/05:30am 18.4 11.4 1.9 33 8.2 NNW 28 35 15 19 1017.4 1008.8 0.0
25/05:00am 18.6 12.8 2.4 34 8.2 NNW 22 32 12 17 1017.3 1008.7 0.0
25/04:30am 19.1 13.0 2.5 33 8.4 NNW 24 33 13 18 1017.4 1008.8 0.0
25/04:00am 19.1 12.6 2.9 34 8.3 NNW 26 33 14 18 1017.3 1008.7 0.0
25/03:30am 19.4 13.2 2.3 32 8.7 NNW 24 33 13 18 1017.5 1008.9 0.0
25/03:00am 19.3 13.6 2.6 33 8.5 NNW 22 30 12 16 1017.6 1009.1 0.0
25/02:30am 19.3 13.9 2.6 33 8.5 NNW 20 26 11 14 1018.0 1009.4 0.0
25/02:00am 18.8 14.2 3.8 37 7.8 N 17 20 9 11 1018.3 1009.8 0.0
25/01:30am 19.1 15.0 4.5 38 7.7 NNW 15 19 8 10 1018.7 1010.2 0.0
25/01:00am 19.3 15.5 3.9 36 8.0 NNW 13 17 7 9 1019.0 1010.5 0.0
25/12:30am 19.6 15.4 3.7 35 8.3 NNW 15 19 8 10 1019.4 1010.9 0.0
25/12:00am 19.6 16.1 3.7 35 8.3 NNW 11 13 6 7 1019.6 1011.2 0.0
 
Date/Time
EDT
Temp
°C
App
Temp
°C
Dew
Point
°C
Rel
Hum
%
Delta-T
°C
Wind Press
QNH
hPa
Press
MSL
hPa
Rain since
9am
mm
Dir  Spd
km/h
Gust
km/h
Spd
kts
Gust
kts
24/11:30pm 19.7 16.6 3.8 35 8.3 NNW 9 11 5 6 1019.9 1011.4 0.0
24/11:00pm 19.9 16.6 2.7 32 8.8 NNW 9 11 5 6 1020.2 1011.8 0.0
24/10:30pm 19.8 16.5 2.6 32 8.8 NW 9 11 5 6 1020.3 1011.9 0.0
24/10:00pm 19.6 16.4 2.9 33 8.5 NW 9 11 5 6 1020.3 1011.9 0.0
24/09:30pm 19.8 16.6 3.1 33 8.6 NNW 9 11 5 6 1020.3 1011.9 0.0
24/09:00pm 20.0 16.8 2.8 32 8.8 NNW 9 9 5 5 1020.1 1011.6 0.0
24/08:30pm 20.3 17.5 3.1 32 8.9 NNW 7 7 4 4 1020.0 1011.5 0.0
24/08:00pm 20.4 17.7 3.6 33 8.8 NNW 7 9 4 5 1020.0 1011.5 0.0
24/07:30pm 20.6 17.2 4.2 34 8.7 NNW 11 13 6 7 1020.0 1011.5 0.0
24/07:00pm 20.9 17.7 4.9 35 8.6 NNW 11 15 6 8 1019.9 1011.4 0.0
24/06:30pm 21.5 18.0 5.4 35 8.7 NNW 13 17 7 9 1019.9 1011.4 0.0
24/06:00pm 21.9 18.7 4.9 33 9.2 NNW 11 17 6 9 1019.9 1011.4 0.0
24/05:30pm 22.0 18.6 5.8 35 8.9 NNW 13 20 7 11 1020.1 1011.6 0.0
24/05:00pm 22.5 19.0 5.4 33 9.3 NNW 13 20 7 11 1020.3 1011.9 0.0
24/04:30pm 23.3 19.5 5.7 32 9.7 N 15 24 8 13 1020.3 1011.9 0.0
24/04:00pm 22.9 18.6 5.3 32 9.6 N 17 26 9 14 1020.6 1012.1 0.0
24/03:30pm 23.0 19.5 5.4 32 9.6 NNW 13 24 7 13 1020.8 1012.4 0.0
24/03:00pm 23.4 19.3 6.2 33 9.6 N 17 30 9 16 1020.9 1012.5 0.0
24/02:30pm 23.0 18.3 5.9 33 9.4 N 20 35 11 19 1021.2 1012.7 0.0
24/02:00pm 22.7 18.5 7.3 37 8.7 N 19 30 10 16 1021.4 1013.0 0.0
24/01:30pm 22.4 19.2 7.0 37 8.6 NW 13 22 7 12 1021.8 1013.4 0.0
24/01:00pm 22.7 19.2 5.6 33 9.4 NNW 13 24 7 13 1022.0 1013.6 0.0
24/12:30pm 22.1 18.3 5.9 35 8.9 NW 15 26 8 14 1022.0 1013.6 0.0
24/12:00pm 21.9 17.7 7.3 39 8.2 NW 19 30 10 16 1022.1 1013.7 0.0
24/11:30am 21.5 17.6 7.0 39 8.1 NW 17 33 9 18 1022.0 1013.6 0.0
24/11:00am 20.7 16.2 6.3 39 7.9 NNW 19 32 10 17 1022.0 1013.6 0.0
24/10:30am 20.0 15.0 6.4 41 7.5 NW 22 37 12 20 1021.8 1013.4 0.0
24/10:00am 19.8 15.1 6.2 41 7.4 NW 20 35 11 19 1021.7 1013.2 0.0
24/09:30am 19.2 14.0 5.3 40 7.4 NW 22 33 12 18 1021.7 1013.2 0.0
24/09:00am 18.7 13.8 5.2 41 7.2 NW 20 33 11 18 1021.5 1013.1 0.0
24/08:30am 18.0 13.6 4.9 42 6.9 NW 17 28 9 15 1021.4 1013.0 0.0
24/08:00am 17.4 12.6 4.7 43 6.6 NNW 19 33 10 18 1020.9 1012.5 0.0
24/07:30am 16.8 11.8 4.5 44 6.4 NNW 20 32 11 17 1020.7 1012.3 0.0
24/07:00am 16.3 11.2 4.0 44 6.3 NW 20 33 11 18 1020.5 1012.0 0.0
24/06:30am 16.1 11.0 3.9 44 6.2 NW 20 28 11 15 1020.2 1011.8 0.0
24/06:00am 16.4 11.2 3.8 43 6.4 NW 20 35 11 19 1020.1 1011.6 0.0
24/05:30am 16.2 11.6 3.6 43 6.4 NW 17 26 9 14 1020.0 1011.5 0.0
24/05:00am 16.5 11.5 3.6 42 6.6 NW 19 33 10 18 1019.6 1011.2 0.0
24/04:30am 16.1 11.1 3.5 43 6.4 NW 19 30 10 16 1019.4 1010.9 0.0
24/04:00am 16.0 11.7 3.4 43 6.4 NW 15 24 8 13 1019.6 1011.2 0.0
24/03:30am 16.5 11.8 3.2 41 6.7 NW 17 33 9 18 1019.8 1011.3 0.0
24/03:00am 16.4 11.2 3.8 43 6.4 NW 20 26 11 14 1020.0 1011.5 0.0
24/02:30am 16.6 11.0 3.7 42 6.6 NW 22 32 12 17 1020.2 1011.8 0.0
24/02:00am 16.6 11.0 3.3 41 6.7 NW 22 32 12 17 1020.5 1012.0 0.0
24/01:30am 16.8 10.9 3.8 42 6.7 NW 24 30 13 16 1020.6 1012.1 0.0
24/01:00am 17.2 10.9 3.8 41 6.9 NW 26 33 14 18 1020.8 1012.4 0.0
24/12:30am 16.9 11.8 3.9 42 6.7 NW 20 28 11 15 1021.1 1012.6 0.0
24/12:00am 16.6 12.4 4.0 43 6.5 NNW 15 22 8 12 1021.2 1012.7 0.0
 
Date/Time
EDT
Temp
°C
App
Temp
°C
Dew
Point
°C
Rel
Hum
%
Delta-T
°C
Wind Press
QNH
hPa
Press
MSL
hPa
Rain since
9am
mm
Dir  Spd
km/h
Gust
km/h
Spd
kts
Gust
kts
23/11:30pm 17.0 11.9 4.0 42 6.7 NW 20 26 11 14 1021.8 1013.4 0.0
23/11:00pm 17.2 12.0 3.8 41 6.9 NW 20 28 11 15 1021.7 1013.2 0.0

Other formats

Comma delimited format used in spreadsheet applications
http://www.bom.gov.au/fwo/IDV60801/IDV60801.94903.axf

JavaScript Object Notation format (JSON) in row-major order
http://www.bom.gov.au/fwo/IDV60801/IDV60801.94903.json

Data quality

Most of these data are generated automatically and are frequently updated. Quality checks on data are not normally performed. It is possible for incorrect values to appear. Refer to information at About Latest Weather Observations and please check the disclaimer before using these data.